createdAt,value
2019-02-26T00:00:07.628Z,103573.17
2019-02-26T00:02:39.628Z,103567.02
2019-02-26T00:05:06.819Z,103572.27
2019-02-26T00:07:34.015Z,103570.47
2019-02-26T00:10:02.610Z,103558.95
2019-02-26T00:12:31.115Z,103555.84
2019-02-26T00:15:00.295Z,103557.16
2019-02-26T00:17:28.647Z,103549.70
2019-02-26T00:19:55.822Z,103543.19
2019-02-26T00:22:22.987Z,103547.98
2019-02-26T00:24:50.251Z,103554.89
2019-02-26T00:27:17.544Z,103553.22
2019-02-26T00:29:46.369Z,103547.16
2019-02-26T00:32:15.717Z,103538.85
2019-02-26T00:34:43.002Z,103535.33
2019-02-26T00:37:10.196Z,103535.28
2019-02-26T00:39:37.355Z,103534.39
2019-02-26T00:42:05.215Z,103532.13
2019-02-26T00:44:34.553Z,103534.30
2019-02-26T00:47:04.288Z,103521.65
2019-02-26T00:49:30.865Z,103526.80
2019-02-26T00:51:58.104Z,103536.91
2019-02-26T00:54:26.653Z,103539.05
2019-02-26T00:56:57.042Z,103535.06
2019-02-26T00:59:23.608Z,103523.61
2019-02-26T01:01:52.621Z,103520.12
2019-02-26T01:04:20.045Z,103519.77
2019-02-26T01:06:47.282Z,103527.98
2019-02-26T01:09:15.068Z,103536.70
2019-02-26T01:11:42.930Z,103542.03
2019-02-26T01:14:11.380Z,103538.97
2019-02-26T01:16:39.435Z,103546.39
2019-02-26T01:19:09.039Z,103552.00
2019-02-26T01:21:37.907Z,103553.94
2019-02-26T01:24:06.455Z,103553.94
2019-02-26T01:26:34.317Z,103556.12
2019-02-26T01:29:01.565Z,103562.63
2019-02-26T01:31:29.793Z,103559.41
2019-02-26T01:33:58.056Z,103557.66
2019-02-26T01:36:25.439Z,103562.89
2019-02-26T01:38:53.197Z,103562.89
2019-02-26T01:41:22.725Z,103559.33
2019-02-26T01:43:49.628Z,103569.45
2019-02-26T01:46:18.707Z,103570.75
2019-02-26T01:48:46.047Z,103560.55
2019-02-26T01:51:13.263Z,103574.19
2019-02-26T01:53:41.953Z,103564.20
2019-02-26T01:56:09.875Z,103557.56
2019-02-26T01:58:37.067Z,103557.56
2019-02-26T02:01:04.370Z,103557.48
2019-02-26T02:03:32.599Z,103557.48
2019-02-26T02:05:59.950Z,103548.22
2019-02-26T02:08:27.156Z,103541.64
2019-02-26T02:10:57.137Z,103524.48
2019-02-26T02:13:26.226Z,103524.48
2019-02-26T02:15:52.656Z,103526.93
2019-02-26T02:18:21.028Z,103524.80
2019-02-26T02:20:49.044Z,103526.56
2019-02-26T02:23:16.302Z,103528.61
2019-02-26T02:25:45.558Z,103524.51
2019-02-26T02:28:12.593Z,103510.38
2019-02-26T02:30:39.803Z,103510.38
2019-02-26T02:33:07.075Z,103508.66
2019-02-26T02:35:34.228Z,103505.22
2019-02-26T02:38:02.966Z,103507.76
2019-02-26T02:40:30.654Z,103491.95
2019-02-26T02:42:57.833Z,103491.95
2019-02-26T02:45:25.034Z,103500.27
2019-02-26T02:47:57.814Z,103482.22
2019-02-26T02:50:21.305Z,103482.22
2019-02-26T02:52:50.581Z,103484.83
2019-02-26T02:55:19.286Z,103485.41
2019-02-26T02:57:49.356Z,103493.77
2019-02-26T03:00:16.292Z,103493.77
2019-02-26T03:02:46.381Z,103477.64
2019-02-26T03:05:12.771Z,103478.34
2019-02-26T03:07:42.060Z,103478.34
2019-02-26T03:10:11.584Z,103479.61
2019-02-26T03:12:38.334Z,103483.45
2019-02-26T03:15:08.059Z,103482.59
2019-02-26T03:17:36.128Z,103491.96
2019-02-26T03:20:05.560Z,103491.96
2019-02-26T03:22:36.138Z,103493.63
2019-02-26T03:25:02.821Z,103493.63
2019-02-26T03:27:31.385Z,103489.74
2019-02-26T03:30:01.727Z,103503.25
2019-02-26T03:32:28.363Z,103503.25
2019-02-26T03:34:55.572Z,103508.86
2019-02-26T03:37:23.351Z,103508.86
2019-02-26T03:39:52.656Z,103511.48
2019-02-26T03:42:21.216Z,103517.20
2019-02-26T03:44:48.675Z,103517.20
2019-02-26T03:47:16.335Z,103539.34
2019-02-26T03:49:45.075Z,103539.34
2019-02-26T03:52:15.392Z,103543.27
2019-02-26T03:54:42.965Z,103535.36
2019-02-26T03:57:11.458Z,103536.71
2019-02-26T03:59:39.701Z,103537.89
2019-02-26T04:02:07.295Z,103537.89
2019-02-26T04:04:36.185Z,103526.42
2019-02-26T04:07:04.922Z,103526.42
2019-02-26T04:09:32.457Z,103512.70
2019-02-26T04:11:59.811Z,103519.42
2019-02-26T04:14:28.775Z,103518.52
2019-02-26T04:16:58.662Z,103518.52
2019-02-26T04:19:26.787Z,103517.71
2019-02-26T04:22:28.857Z,103517.71
2019-02-26T04:25:09.144Z,103529.31
2019-02-26T04:28:33.464Z,103526.02
2019-02-26T04:31:44.616Z,103523.22
2019-02-26T04:34:26.921Z,103520.02
2019-02-26T04:37:41.886Z,103509.00
2019-02-26T04:40:20.488Z,103509.00
2019-02-26T04:43:34.110Z,103511.16
2019-02-26T04:46:39.662Z,103503.20
2019-02-26T04:49:07.030Z,103503.20
2019-02-26T04:51:36.427Z,103515.05
2019-02-26T04:54:03.357Z,103514.67
2019-02-26T04:56:33.466Z,103510.25
2019-02-26T04:58:59.647Z,103510.25
2019-02-26T05:01:27.012Z,103512.11
2019-02-26T05:03:54.197Z,103509.09
2019-02-26T05:06:21.372Z,103509.09
2019-02-26T05:08:48.582Z,103503.08
2019-02-26T05:11:30.840Z,103507.09
2019-02-26T05:13:45.024Z,103504.48
2019-02-26T05:16:12.244Z,103507.59
2019-02-26T05:18:39.612Z,103502.41
2019-02-26T05:21:08.279Z,103502.09
2019-02-26T05:23:35.918Z,103502.09
2019-02-26T05:26:05.769Z,103507.78
2019-02-26T05:28:35.627Z,103509.22
2019-02-26T05:31:03.652Z,103509.22
2019-02-26T05:33:32.757Z,103509.50
2019-02-26T05:35:59.811Z,103506.88
2019-02-26T05:38:29.624Z,103505.12
2019-02-26T05:40:56.186Z,103507.28
2019-02-26T05:43:25.747Z,103502.95
2019-02-26T05:45:54.915Z,103493.78
2019-02-26T05:48:23.805Z,103507.20
2019-02-26T05:50:50.748Z,103501.23
2019-02-26T05:53:17.981Z,103501.23
2019-02-26T05:55:48.705Z,103502.00
2019-02-26T05:58:16.420Z,103502.00
2019-02-26T06:00:43.918Z,103504.25
2019-02-26T06:03:12.824Z,103506.34
2019-02-26T06:05:43.445Z,103502.77
2019-02-26T06:08:09.633Z,103500.16
2019-02-26T06:10:36.823Z,103506.06
2019-02-26T06:13:05.008Z,103506.06
2019-02-26T06:15:34.149Z,103507.82
2019-02-26T06:18:01.475Z,103499.78
2019-02-26T06:20:31.203Z,103503.40
2019-02-26T06:22:57.783Z,103504.44
2019-02-26T06:25:25.074Z,103499.30
2019-02-26T06:27:52.255Z,103493.51
2019-02-26T06:30:19.459Z,103492.07
2019-02-26T06:32:46.696Z,103493.70
2019-02-26T06:35:16.559Z,103484.44
2019-02-26T06:37:43.675Z,103483.99
2019-02-26T06:40:11.882Z,103489.27
2019-02-26T06:42:40.339Z,103490.13
2019-02-26T06:45:10.861Z,103484.84
2019-02-26T06:47:38.036Z,103484.84
2019-02-26T06:50:07.892Z,103478.66
2019-02-26T06:52:37.191Z,103477.55
2019-02-26T06:55:05.927Z,103481.91
2019-02-26T06:57:33.922Z,103470.50
2019-02-26T07:00:04.246Z,103470.50
2019-02-26T07:02:33.522Z,103467.43
2019-02-26T07:05:01.396Z,103469.82
2019-02-26T07:07:30.663Z,103469.82
2019-02-26T07:09:58.218Z,103469.73
2019-02-26T07:12:26.505Z,103479.80
2019-02-26T07:14:55.567Z,103483.95
2019-02-26T07:17:23.263Z,103483.95
2019-02-26T07:19:52.968Z,103477.63
2019-02-26T07:22:19.651Z,103474.28
2019-02-26T07:24:49.644Z,103474.28
2019-02-26T07:27:16.137Z,103487.15
2019-02-26T07:29:45.549Z,103487.15
2019-02-26T07:32:14.615Z,103502.41
2019-02-26T07:34:42.812Z,103502.41
2019-02-26T07:37:11.696Z,103509.77
2019-02-26T07:39:41.926Z,103512.52
2019-02-26T07:42:09.647Z,103517.75
2019-02-26T07:44:38.188Z,103507.23
2019-02-26T07:47:06.669Z,103495.86
2019-02-26T07:49:34.654Z,103498.61
2019-02-26T07:52:05.488Z,103497.70
2019-02-26T07:54:30.967Z,103497.70
2019-02-26T07:57:00.119Z,103515.32
2019-02-26T07:59:27.908Z,103515.32
2019-02-26T08:01:56.363Z,103513.52
2019-02-26T08:04:23.574Z,103512.70
2019-02-26T08:06:52.371Z,103510.94
2019-02-26T08:09:21.832Z,103510.94
2019-02-26T08:11:49.151Z,103521.33
2019-02-26T08:14:18.337Z,103515.89
2019-02-26T08:16:49.267Z,103515.89
2019-02-26T08:19:14.589Z,103516.43
2019-02-26T08:21:41.911Z,103516.43
2019-02-26T08:24:10.633Z,103508.48
2019-02-26T08:26:40.380Z,103508.48
2019-02-26T08:29:07.970Z,103513.95
2019-02-26T08:31:36.460Z,103513.17
2019-02-26T08:34:03.731Z,103513.66
2019-02-26T08:36:30.966Z,103513.66
2019-02-26T08:38:58.249Z,103504.20
2019-02-26T08:41:25.532Z,103506.92
2019-02-26T08:43:54.597Z,103489.60
2019-02-26T08:46:22.210Z,103489.60
2019-02-26T08:48:50.782Z,103488.45
2019-02-26T08:51:18.985Z,103493.16
2019-02-26T08:53:49.384Z,103493.16
2019-02-26T08:56:18.619Z,103497.25
2019-02-26T08:58:45.608Z,103504.79
2019-02-26T09:01:12.884Z,103490.98
2019-02-26T09:03:40.946Z,103490.98
2019-02-26T09:06:13.327Z,103491.06
2019-02-26T09:08:38.585Z,103493.47
2019-02-26T09:11:10.170Z,103493.47
2019-02-26T09:13:38.712Z,103480.73
2019-02-26T09:16:07.854Z,103488.30
2019-02-26T09:18:37.872Z,103482.61
2019-02-26T09:21:04.231Z,103486.99
2019-02-26T09:23:32.872Z,103481.34
2019-02-26T09:26:02.068Z,103476.98
2019-02-26T09:28:31.566Z,103480.59
2019-02-26T09:31:01.175Z,103480.63
2019-02-26T09:33:32.533Z,103478.90
2019-02-26T09:35:56.852Z,103478.52
2019-02-26T09:38:25.546Z,103481.22
2019-02-26T09:40:54.651Z,103487.40
2019-02-26T09:43:24.349Z,103492.64
2019-02-26T09:45:52.907Z,103489.57
2019-02-26T09:48:22.010Z,103497.89
2019-02-26T09:50:49.333Z,103490.09
2019-02-26T09:53:16.561Z,103491.89
2019-02-26T09:55:43.776Z,103494.13
2019-02-26T09:58:11.094Z,103494.55
2019-02-26T10:00:38.238Z,103502.42
2019-02-26T10:03:07.929Z,103499.76
2019-02-26T10:05:34.616Z,103497.20
2019-02-26T10:08:04.814Z,103486.34
2019-02-26T10:10:33.514Z,103485.92
2019-02-26T10:13:02.868Z,103493.38
2019-02-26T10:15:29.152Z,103503.05
2019-02-26T10:17:58.780Z,103498.28
2019-02-26T10:20:28.592Z,103508.41
2019-02-26T10:22:57.643Z,103507.13
2019-02-26T10:25:25.706Z,103502.33
2019-02-26T10:27:53.013Z,103500.16
2019-02-26T10:30:20.207Z,103497.63
2019-02-26T10:32:47.402Z,103505.16
2019-02-26T10:35:18.504Z,103509.55
2019-02-26T10:37:52.189Z,103505.16
2019-02-26T10:40:19.636Z,103508.72
2019-02-26T10:42:46.992Z,103509.64
2019-02-26T10:45:15.203Z,103514.52
2019-02-26T10:47:42.472Z,103511.96
2019-02-26T10:50:13.050Z,103508.92
2019-02-26T10:52:40.886Z,103513.34
2019-02-26T10:55:12.819Z,103518.14
2019-02-26T10:57:38.478Z,103514.69
2019-02-26T11:00:10.844Z,103511.23
2019-02-26T11:02:38.271Z,103518.27
2019-02-26T11:05:06.215Z,103525.80
2019-02-26T11:07:34.608Z,103521.06
2019-02-26T11:10:02.539Z,103525.48
2019-02-26T11:12:33.404Z,103529.48
2019-02-26T11:15:01.413Z,103524.30
2019-02-26T11:17:28.942Z,103521.77
2019-02-26T11:19:58.625Z,103521.80
2019-02-26T11:22:28.021Z,103517.86
2019-02-26T11:24:56.115Z,103519.23
2019-02-26T11:27:24.615Z,103517.50
2019-02-26T11:29:52.617Z,103517.92
2019-02-26T11:32:21.113Z,103513.09
2019-02-26T11:34:50.302Z,103516.61
2019-02-26T11:37:17.536Z,103525.98
2019-02-26T11:39:44.781Z,103516.89
2019-02-26T11:42:11.946Z,103514.29
2019-02-26T11:44:39.136Z,103516.95
2019-02-26T11:47:08.637Z,103516.98
2019-02-26T11:49:37.011Z,103517.03
2019-02-26T11:52:05.323Z,103513.52
2019-02-26T11:54:34.461Z,103510.02
2019-02-26T11:57:01.683Z,103513.12
2019-02-26T11:59:31.057Z,103504.02
2019-02-26T12:01:59.084Z,103509.33
2019-02-26T12:04:27.187Z,103511.53
2019-02-26T12:06:55.806Z,103507.15
2019-02-26T12:09:23.481Z,103502.37
2019-02-26T12:11:50.699Z,103497.59
2019-02-26T12:14:19.457Z,103496.33
2019-02-26T12:16:47.011Z,103500.72
2019-02-26T12:19:17.268Z,103498.98
2019-02-26T12:21:49.197Z,103494.59
2019-02-26T12:24:15.116Z,103490.59
2019-02-26T12:26:44.681Z,103478.80
2019-02-26T12:29:11.601Z,103480.09
2019-02-26T12:31:39.155Z,103485.86
2019-02-26T12:34:09.129Z,103480.25
2019-02-26T12:36:35.711Z,103480.27
2019-02-26T12:39:03.645Z,103475.06
2019-02-26T12:41:33.252Z,103483.05
2019-02-26T12:44:02.048Z,103474.79
2019-02-26T12:46:31.945Z,103479.70
2019-02-26T12:49:02.757Z,103482.80
2019-02-26T12:51:31.764Z,103478.04
2019-02-26T12:53:58.017Z,103469.80
2019-02-26T12:56:27.861Z,103445.62
2019-02-26T12:58:54.738Z,103466.45
2019-02-26T13:01:22.030Z,103459.00
2019-02-26T13:03:53.993Z,103458.15
2019-02-26T13:06:21.540Z,103455.61
2019-02-26T13:08:49.781Z,103448.21
2019-02-26T13:11:17.860Z,103444.72
2019-02-26T13:13:48.610Z,103445.63
2019-02-26T13:16:14.863Z,103439.96
2019-02-26T13:18:42.074Z,103432.13
2019-02-26T13:21:13.226Z,103427.81
2019-02-26T13:23:38.375Z,103423.95
2019-02-26T13:26:08.308Z,103417.00
2019-02-26T13:28:34.660Z,103410.02
2019-02-26T13:31:04.778Z,103409.19
2019-02-26T13:33:35.208Z,103414.93
2019-02-26T13:36:01.846Z,103407.07
2019-02-26T13:38:36.894Z,103413.67
2019-02-26T13:41:19.831Z,103418.99
2019-02-26T13:43:28.660Z,103419.92
2019-02-26T13:45:55.896Z,103419.06
2019-02-26T13:48:24.116Z,103410.36
2019-02-26T13:50:51.285Z,103394.08
2019-02-26T13:53:18.514Z,103406.88
2019-02-26T13:55:45.701Z,103410.84
2019-02-26T13:58:12.935Z,103407.83
2019-02-26T14:00:40.169Z,103404.31
2019-02-26T14:03:07.278Z,103407.00
2019-02-26T14:05:38.122Z,103402.16
2019-02-26T14:08:03.583Z,103398.65
2019-02-26T14:10:30.771Z,103390.76
2019-02-26T14:12:58.040Z,103389.00
2019-02-26T14:15:25.220Z,103391.67
2019-02-26T14:17:52.586Z,103386.91
2019-02-26T14:20:19.818Z,103392.23
2019-02-26T14:22:47.027Z,103388.80
2019-02-26T14:25:14.295Z,103394.20
2019-02-26T14:27:41.504Z,103392.05
2019-02-26T14:30:09.933Z,103387.25
2019-02-26T14:32:37.081Z,103392.55
2019-02-26T14:35:04.990Z,103399.16
2019-02-26T14:37:32.194Z,103384.67
2019-02-26T14:39:59.385Z,103385.16
2019-02-26T14:42:26.741Z,103389.56
2019-02-26T14:44:53.911Z,103383.44
2019-02-26T14:47:21.191Z,103383.86
2019-02-26T14:49:48.480Z,103379.03
2019-02-26T14:52:15.728Z,103380.80
2019-02-26T14:54:42.923Z,103381.65
2019-02-26T14:57:10.379Z,103380.36
2019-02-26T14:59:37.762Z,103372.86
2019-02-26T15:02:04.895Z,103368.02
2019-02-26T15:04:32.080Z,103370.64
2019-02-26T15:06:59.318Z,103379.45
2019-02-26T15:09:26.536Z,103371.55
2019-02-26T15:11:53.738Z,103375.07
2019-02-26T15:14:20.932Z,103372.41
2019-02-26T15:16:48.135Z,103371.09
2019-02-26T15:19:15.461Z,103368.02
2019-02-26T15:21:42.610Z,103363.61
2019-02-26T15:24:10.091Z,103364.47
2019-02-26T15:26:37.291Z,103369.77
2019-02-26T15:29:04.449Z,103364.45
2019-02-26T15:31:31.645Z,103371.50
2019-02-26T15:33:58.813Z,103374.58
2019-02-26T15:36:26.088Z,103370.66
2019-02-26T15:38:53.264Z,103375.05
2019-02-26T15:41:20.463Z,103373.73
2019-02-26T15:43:47.671Z,103378.56
2019-02-26T15:46:15.020Z,103367.09
2019-02-26T15:48:43.059Z,103364.88
2019-02-26T15:51:14.264Z,103364.84
2019-02-26T15:53:39.646Z,103367.49
2019-02-26T15:56:06.802Z,103361.31
2019-02-26T15:58:34.267Z,103357.34
2019-02-26T16:01:01.961Z,103358.67
2019-02-26T16:03:29.626Z,103359.10
2019-02-26T16:05:57.319Z,103362.64
2019-02-26T16:08:24.516Z,103356.02
2019-02-26T16:10:51.702Z,103359.56
2019-02-26T16:13:19.538Z,103358.24
2019-02-26T16:15:46.873Z,103356.48
2019-02-26T16:18:14.376Z,103353.84
2019-02-26T16:20:41.590Z,103353.88
2019-02-26T16:23:08.807Z,103352.16
2019-02-26T16:25:36.023Z,103355.19
2019-02-26T16:28:03.195Z,103356.10
2019-02-26T16:30:30.456Z,103350.81
2019-02-26T16:32:57.634Z,103347.30
2019-02-26T16:35:25.681Z,103342.46
2019-02-26T16:37:53.035Z,103342.93
2019-02-26T16:40:20.303Z,103336.33
2019-02-26T16:42:47.550Z,103342.49
2019-02-26T16:45:16.464Z,103342.88
2019-02-26T16:47:45.973Z,103344.63
2019-02-26T16:50:14.123Z,103349.84
2019-02-26T16:52:41.310Z,103348.50
2019-02-26T16:55:08.774Z,103354.19
2019-02-26T16:57:36.049Z,103344.45
2019-02-26T17:00:03.948Z,103352.30
2019-02-26T17:02:31.107Z,103350.51
2019-02-26T17:04:58.294Z,103354.84
2019-02-26T17:07:25.470Z,103356.99
2019-02-26T17:09:55.435Z,103360.46
2019-02-26T17:12:22.043Z,103362.14
2019-02-26T17:14:50.676Z,103378.38
2019-02-26T17:17:18.462Z,103366.45
2019-02-26T17:19:48.365Z,103369.05
2019-02-26T17:22:15.214Z,103372.91
2019-02-26T17:24:42.515Z,103375.47
2019-02-26T17:27:11.117Z,103372.36
2019-02-26T17:29:38.384Z,103367.91
2019-02-26T17:32:27.421Z,103372.70
2019-02-26T17:34:55.759Z,103368.27
2019-02-26T17:37:23.558Z,103370.86
2019-02-26T17:39:50.815Z,103365.09
2019-02-26T17:42:18.529Z,103371.20
2019-02-26T17:44:46.106Z,103372.48
2019-02-26T17:47:13.300Z,103376.79
2019-02-26T17:49:40.615Z,103374.16
2019-02-26T17:52:07.928Z,103377.18
2019-02-26T17:54:36.895Z,103377.17
2019-02-26T17:57:05.871Z,103374.55
2019-02-26T17:59:33.190Z,103378.93
2019-02-26T18:02:00.471Z,103371.91
2019-02-26T18:04:27.675Z,103362.18
2019-02-26T18:06:54.947Z,103366.95
2019-02-26T18:09:22.106Z,103365.58
2019-02-26T18:11:49.298Z,103370.33
2019-02-26T18:14:16.559Z,103369.80
2019-02-26T18:16:43.818Z,103371.92
2019-02-26T18:19:12.410Z,103373.22
2019-02-26T18:21:43.187Z,103382.34
2019-02-26T18:24:09.186Z,103366.06
2019-02-26T18:26:36.403Z,103372.59
2019-02-26T18:29:03.567Z,103373.44
2019-02-26T18:31:31.174Z,103373.86
2019-02-26T18:33:58.863Z,103369.01
2019-02-26T18:36:26.087Z,103369.83
2019-02-26T18:38:53.259Z,103368.05
2019-02-26T18:41:20.422Z,103369.75
2019-02-26T18:43:48.089Z,103368.42
2019-02-26T18:46:15.407Z,103366.62
2019-02-26T18:48:43.307Z,103366.13
2019-02-26T18:51:10.625Z,103366.95
2019-02-26T18:53:37.795Z,103364.76
2019-02-26T18:56:05.091Z,103365.13
2019-02-26T18:58:32.344Z,103367.31
2019-02-26T19:00:59.511Z,103365.95
2019-02-26T19:03:26.650Z,103360.25
2019-02-26T19:05:54.854Z,103360.20
2019-02-26T19:08:22.144Z,103358.86
2019-02-26T19:10:50.875Z,103353.56
2019-02-26T19:13:18.875Z,103354.36
2019-02-26T19:15:47.933Z,103357.50
2019-02-26T19:18:15.284Z,103346.50
2019-02-26T19:20:44.292Z,103341.63
2019-02-26T19:23:11.633Z,103338.61
2019-02-26T19:25:41.419Z,103339.06
2019-02-26T19:28:09.796Z,103335.98
2019-02-26T19:30:37.573Z,103334.67
2019-02-26T19:33:05.164Z,103329.42
2019-02-26T19:35:34.731Z,103332.05
2019-02-26T19:38:02.006Z,103334.25
2019-02-26T19:40:33.557Z,103330.22
2019-02-26T19:43:00.858Z,103330.15
2019-02-26T19:45:28.266Z,103324.81
2019-02-26T19:47:56.503Z,103320.53
2019-02-26T19:50:23.869Z,103317.42
2019-02-26T19:52:57.105Z,103313.84
2019-02-26T19:55:23.117Z,103316.02
2019-02-26T19:57:50.295Z,103320.36
2019-02-26T20:00:19.666Z,103314.61
2019-02-26T20:02:47.584Z,103313.71
2019-02-26T20:05:14.918Z,103315.89
2019-02-26T20:07:42.210Z,103312.40
2019-02-26T20:10:10.427Z,103315.11
2019-02-26T20:12:37.823Z,103305.84
2019-02-26T20:15:05.215Z,103305.02
2019-02-26T20:17:32.675Z,103303.78
2019-02-26T20:19:59.863Z,103303.32
2019-02-26T20:22:30.094Z,103300.64
2019-02-26T20:24:58.947Z,103303.61
2019-02-26T20:27:26.154Z,103304.95
2019-02-26T20:29:54.719Z,103294.39
2019-02-26T20:32:21.911Z,103299.14
2019-02-26T20:34:49.443Z,103298.70
2019-02-26T20:37:16.760Z,103302.19
2019-02-26T20:39:44.230Z,103303.16
2019-02-26T20:42:11.702Z,103301.87
2019-02-26T20:44:42.815Z,103299.77
2019-02-26T20:47:08.296Z,103301.08
2019-02-26T20:49:35.678Z,103291.39
2019-02-26T20:52:02.906Z,103291.70
2019-02-26T20:54:30.079Z,103288.59
2019-02-26T20:56:57.258Z,103281.13
2019-02-26T20:59:24.436Z,103282.42
2019-02-26T21:01:51.624Z,103285.94
2019-02-26T21:04:18.836Z,103280.66
2019-02-26T21:06:46.019Z,103280.58
2019-02-26T21:09:13.207Z,103272.68
2019-02-26T21:11:40.410Z,103269.13
2019-02-26T21:14:08.297Z,103274.86
2019-02-26T21:16:35.635Z,103262.19
2019-02-26T21:19:03.493Z,103267.41
2019-02-26T21:21:30.855Z,103268.27
2019-02-26T21:24:00.662Z,103269.97
2019-02-26T21:26:27.190Z,103265.53
2019-02-26T21:28:54.458Z,103264.64
2019-02-26T21:31:21.644Z,103267.69
2019-02-26T21:33:48.835Z,103262.89
2019-02-26T21:36:16.160Z,103258.92
2019-02-26T21:38:43.329Z,103261.98
2019-02-26T21:41:10.570Z,103256.24
2019-02-26T21:43:37.767Z,103252.28
2019-02-26T21:46:05.002Z,103257.11
2019-02-26T21:48:32.227Z,103257.13
2019-02-26T21:50:59.429Z,103252.28
2019-02-26T21:53:26.659Z,103253.14
2019-02-26T21:55:55.568Z,103252.70
2019-02-26T21:58:26.643Z,103250.47
2019-02-26T22:00:52.183Z,103253.05
2019-02-26T22:03:19.407Z,103251.69
2019-02-26T22:05:46.616Z,103249.91
2019-02-26T22:08:13.859Z,103247.31
2019-02-26T22:10:42.808Z,103244.20
2019-02-26T22:13:10.302Z,103245.02
2019-02-26T22:15:37.499Z,103242.42
2019-02-26T22:18:04.779Z,103243.34
2019-02-26T22:20:36.246Z,103245.08
2019-02-26T22:23:01.202Z,103244.66
2019-02-26T22:25:29.330Z,103248.62
2019-02-26T22:27:56.689Z,103244.18
2019-02-26T22:30:23.895Z,103244.66
2019-02-26T22:32:51.090Z,103244.23
2019-02-26T22:35:18.318Z,103247.73
2019-02-26T22:37:45.606Z,103247.67
2019-02-26T22:40:12.845Z,103249.78
2019-02-26T22:42:41.347Z,103243.23
2019-02-26T22:45:09.378Z,103242.40
2019-02-26T22:47:40.095Z,103236.70
2019-02-26T22:50:07.915Z,103234.20
2019-02-26T22:52:35.535Z,103244.34
2019-02-26T22:55:02.971Z,103235.56
2019-02-26T22:57:30.502Z,103242.54
2019-02-26T22:59:57.787Z,103232.44
2019-02-26T23:02:25.194Z,103229.84
2019-02-26T23:04:53.202Z,103230.76
2019-02-26T23:07:20.860Z,103223.39
2019-02-26T23:09:52.187Z,103222.97
2019-02-26T23:12:17.856Z,103222.08
2019-02-26T23:14:45.133Z,103220.55
2019-02-26T23:17:12.639Z,103213.79
2019-02-26T23:19:39.961Z,103206.67
2019-02-26T23:22:07.204Z,103208.40
2019-02-26T23:24:34.703Z,103198.77
2019-02-26T23:27:01.907Z,103202.71
2019-02-26T23:29:29.137Z,103207.50
2019-02-26T23:31:56.321Z,103206.64
2019-02-26T23:34:23.546Z,103205.69
2019-02-26T23:36:50.796Z,103210.06
2019-02-26T23:39:18.098Z,103210.45
2019-02-26T23:41:45.237Z,103211.73
2019-02-26T23:44:13.139Z,103214.33
2019-02-26T23:46:40.296Z,103210.40
2019-02-26T23:49:07.524Z,103211.70
2019-02-26T23:51:34.695Z,103209.53
2019-02-26T23:54:01.946Z,103203.84
2019-02-26T23:56:29.159Z,103200.30
2019-02-26T23:58:56.378Z,103209.02
